This is the latest recevied weather packets stored in our database for station/object FW7644. If no packets are shown the sender has not sent any weather packets the latest 10 day(s).
| Time | Temp. | Humidity | Pressure | Rain* | Wind** | Luminosity | Snow |
|---|---|---|---|---|---|---|---|
| 1778081254 | 28.33° C | 50% | 1023.5 hPa | 0 mm | - | - | - |
| 1778080952 | 28.89° C | 49% | 1023.5 hPa | 0 mm | - | - | - |
| 1778080650 | 28.89° C | 49% | 1023.6 hPa | 0 mm | - | - | - |
| 1778080348 | 28.89° C | 48% | 1023.8 hPa | 0 mm | - | - | - |
| 1778080046 | 28.33° C | 48% | 1023.9 hPa | 0 mm | - | - | - |
| 1778079744 | 29.44° C | 48% | 1023.9 hPa | 0 mm | - | - | - |
| 1778079442 | 28.33° C | 52% | 1023.9 hPa | 0 mm | - | - | - |
| 1778079140 | 28.33° C | 53% | 1024 hPa | 0 mm | - | - | - |
| 1778078838 | 28.33° C | 54% | 1024.1 hPa | 0 mm | - | - | - |
| 1778078536 | 28.33° C | 53% | 1024.1 hPa | 0 mm | - | - | - |
| 1778078235 | 28.33° C | 54% | 1024.1 hPa | 0 mm | - | - | - |
| 1778077933 | 27.78° C | 55% | 1024.2 hPa | 0 mm | - | - | - |
| 1778077631 | 27.22° C | 57% | 1024.3 hPa | 0 mm | - | - | - |
| 1778077330 | 26.67° C | 56% | 1024.3 hPa | 0 mm | - | - | - |
| 1778077028 | 27.78° C | 52% | 1024.4 hPa | 0 mm | - | - | - |
| 1778076726 | 27.78° C | 54% | 1024.5 hPa | 0 mm | - | - | - |
| 1778076425 | 27.78° C | 55% | 1024.5 hPa | 0 mm | - | - | - |
| 1778076123 | 26.67° C | 59% | 1024.5 hPa | 0 mm | - | - | - |
| 1778075821 | 27.22° C | 56% | 1024.6 hPa | 0 mm | - | - | - |
| 1778075519 | 27.22° C | 56% | 1024.7 hPa | 0 mm | - | - | - |
| 1778075218 | 26.67° C | 58% | 1024.7 hPa | 0 mm | - | - | - |
| 1778074915 | 27.22° C | 57% | 1024.8 hPa | 0 mm | - | - | - |
| 1778074613 | 27.22° C | 60% | 1024.7 hPa | 0 mm | - | - | - |
| 1778074311 | 27.22° C | 57% | 1024.8 hPa | 0 mm | - | - | - |
| 1778074009 | 27.78° C | 58% | 1024.9 hPa | 0 mm | - | - | - |
* Rain latest hour (hover to see other rain measurements)
** Current wind speed in m/s (hover to see current wind gust speed)